Time;durP1;ratioP1;P1;durP2;ratioP2;P2;SDS_P1;SDS_P2;PMS_P1;PMS_P2;Temp;Humidity;BMP_temperature;BMP_pressure;BME280_temperature;BME280_humidity;BME280_pressure;Samples;Min_cycle;Max_cycle;Signal;HPM_P1;HPM_P2
2021/05/25 00:00:09;;;;;;;5.53;1.90;;;6.50;99.90;;;;;;5102192;28;20035;-73
2021/05/25 00:02:34;;;;;;;6.20;1.75;;;6.30;99.90;;;;;;5112700;28;20034;-73
2021/05/25 00:05:00;;;;;;;9.52;1.70;;;6.00;99.90;;;;;;5112959;28;20111;-73
2021/05/25 00:07:26;;;;;;;7.38;2.00;;;5.90;99.90;;;;;;5112837;28;20027;-73
2021/05/25 00:09:52;;;;;;;7.90;1.70;;;6.10;99.90;;;;;;5112230;28;20387;-73
2021/05/25 00:12:17;;;;;;;5.80;1.55;;;6.10;99.90;;;;;;5110925;28;20068;-73
2021/05/25 00:14:43;;;;;;;3.67;1.42;;;6.00;99.90;;;;;;5092348;28;20040;-73
2021/05/25 00:17:09;;;;;;;3.08;1.15;;;6.10;99.90;;;;;;5092436;28;20102;-73
2021/05/25 00:19:35;;;;;;;2.47;1.35;;;6.00;99.90;;;;;;5091891;28;20040;-73
2021/05/25 00:22:00;;;;;;;4.57;2.67;;;6.00;99.90;;;;;;5094502;28;20039;-73
2021/05/25 00:24:27;;;;;;;6.07;1.58;;;5.80;99.90;;;;;;5091841;28;20073;-73
2021/05/25 00:26:52;;;;;;;4.78;2.17;;;5.80;99.90;;;;;;5099364;28;20019;-73
2021/05/25 00:29:18;;;;;;;8.65;1.77;;;5.80;99.90;;;;;;5110409;28;20020;-73
2021/05/25 00:31:44;;;;;;;7.40;1.88;;;5.70;99.90;;;;;;5094947;28;20034;-73
2021/05/25 00:34:09;;;;;;;9.45;2.25;;;5.70;99.90;;;;;;5106000;28;20115;-73
2021/05/25 00:36:36;;;;;;;4.60;1.67;;;5.70;99.90;;;;;;5092210;28;20060;-73
2021/05/25 00:39:04;;;;;;;9.73;1.52;;;5.80;99.90;;;;;;5091759;28;20398;-73
2021/05/25 00:41:30;;;;;;;7.00;2.60;;;5.80;99.90;;;;;;5092067;28;20531;-73
2021/05/25 00:43:55;;;;;;;4.90;2.05;;;5.80;99.90;;;;;;5092078;28;20108;-73
2021/05/25 00:46:21;;;;;;;3.65;1.92;;;5.60;99.90;;;;;;5092206;28;20031;-73
2021/05/25 00:48:47;;;;;;;15.73;5.70;;;5.60;99.90;;;;;;5091809;28;20042;-73
2021/05/25 00:51:13;;;;;;;12.63;3.85;;;5.50;99.90;;;;;;5092168;28;20051;-73
2021/05/25 00:53:39;;;;;;;17.83;7.72;;;5.60;99.90;;;;;;5091664;28;20027;-73
2021/05/25 00:56:05;;;;;;;10.88;5.00;;;5.60;99.90;;;;;;5091840;28;20024;-73
2021/05/25 00:58:34;;;;;;;13.75;4.95;;;5.60;99.90;;;;;;5092321;28;20024;-73
2021/05/25 01:01:00;;;;;;;11.02;3.25;;;5.60;99.90;;;;;;5091638;28;20028;-73
2021/05/25 01:03:26;;;;;;;8.68;2.75;;;5.50;99.90;;;;;;5091880;28;20036;-73
2021/05/25 01:05:52;;;;;;;6.88;2.03;;;5.40;99.90;;;;;;5091722;28;20150;-73
2021/05/25 01:08:17;;;;;;;7.15;3.17;;;5.60;99.90;;;;;;5090405;28;20032;-73
2021/05/25 01:11:03;;;;;;;6.93;1.90;;;5.70;99.90;;;;;;5109627;28;20019;-73
2021/05/25 01:13:30;;;;;;;4.93;1.45;;;5.70;99.90;;;;;;5109251;28;20051;-73
2021/05/25 01:15:57;;;;;;;6.80;2.20;;;5.50;99.90;;;;;;5095389;28;20564;-73
2021/05/25 01:18:23;;;;;;;8.02;1.83;;;5.40;99.90;;;;;;5095442;28;20063;-73
2021/05/25 01:20:51;;;;;;;5.78;1.52;;;5.40;99.90;;;;;;5095050;28;20063;-73
2021/05/25 01:23:17;;;;;;;8.38;2.85;;;5.50;99.90;;;;;;5095029;28;20056;-73
2021/05/25 01:25:47;;;;;;;4.32;1.70;;;5.50;99.90;;;;;;5095161;28;20043;-73
2021/05/25 01:28:15;;;;;;;7.55;1.90;;;5.60;99.90;;;;;;5094937;28;20570;-73
2021/05/25 01:30:45;;;;;;;6.80;1.95;;;5.60;99.90;;;;;;5102430;28;20121;-73
2021/05/25 01:33:11;;;;;;;;;;;5.70;99.90;;;;;;5095364;28;20496;-73
2021/05/25 01:35:37;;;;;;;5.30;2.10;;;5.70;99.90;;;;;;5094945;28;19904;-73
2021/05/25 01:38:06;;;;;;;6.95;1.95;;;5.70;99.90;;;;;;5107925;28;20031;-73
2021/05/25 01:40:32;;;;;;;5.47;2.28;;;5.70;99.90;;;;;;5115432;28;20031;-73
2021/05/25 01:42:59;;;;;;;3.88;1.65;;;5.90;99.90;;;;;;5115053;28;20024;-73
2021/05/25 01:45:27;;;;;;;4.10;1.73;;;6.00;99.90;;;;;;5115018;28;20108;-73
2021/05/25 01:47:55;;;;;;;4.03;1.40;;;6.10;99.90;;;;;;5115192;28;20506;-73
2021/05/25 01:50:24;;;;;;;8.80;2.33;;;6.10;99.90;;;;;;5115137;28;20460;-73
2021/05/25 01:52:55;;;;;;;4.30;2.20;;;6.20;99.90;;;;;;5114746;28;20028;-73
2021/05/25 01:55:26;;;;;;;6.53;1.90;;;6.30;99.90;;;;;;5114962;27;20077;-73
2021/05/25 01:57:52;;;;;;;3.67;1.48;;;6.20;99.90;;;;;;5115073;28;20454;-73
2021/05/25 02:00:18;;;;;;;3.78;1.77;;;6.20;99.90;;;;;;5101552;27;20115;-73
2021/05/25 02:02:44;;;;;;;5.50;1.30;;;6.10;99.90;;;;;;5094463;28;20052;-73
2021/05/25 02:05:09;;;;;;;4.18;1.75;;;6.20;99.90;;;;;;5094312;28;20039;-73
2021/05/25 02:07:35;;;;;;;5.28;1.58;;;6.10;99.90;;;;;;5094300;28;20025;-73
2021/05/25 02:10:01;;;;;;;5.30;1.60;;;6.10;99.90;;;;;;5104170;28;20034;-73
2021/05/25 02:12:27;;;;;;;7.85;2.30;;;5.90;99.90;;;;;;5114626;28;20020;-73
2021/05/25 02:14:52;;;;;;;4.00;1.10;;;5.90;99.90;;;;;;5095095;28;20368;-73
2021/05/25 02:17:18;;;;;;;4.25;1.52;;;5.80;99.90;;;;;;5094061;28;20043;-73
2021/05/25 02:19:44;;;;;;;5.55;1.20;;;5.80;99.90;;;;;;5094343;28;20482;-73
2021/05/25 02:22:10;;;;;;;3.85;1.77;;;5.70;99.90;;;;;;5093251;28;20380;-73
2021/05/25 02:24:36;;;;;;;2.70;1.60;;;5.80;99.90;;;;;;5109903;28;20027;-73
2021/05/25 02:27:02;;;;;;;4.25;1.58;;;5.60;99.90;;;;;;5114328;28;20471;-73
2021/05/25 02:29:28;;;;;;;8.93;1.67;;;5.50;99.90;;;;;;5113324;28;20020;-73
2021/05/25 02:31:54;;;;;;;6.93;2.40;;;5.50;99.90;;;;;;5114285;28;20051;-73
2021/05/25 02:34:19;;;;;;;7.13;1.48;;;5.60;99.90;;;;;;5093795;28;20031;-73
2021/05/25 02:36:45;;;;;;;4.72;1.13;;;5.50;99.90;;;;;;5093623;28;20479;-73
2021/05/25 02:39:11;;;;;;;2.75;1.25;;;5.60;99.90;;;;;;5093738;28;20024;-73
2021/05/25 02:41:37;;;;;;;2.67;1.38;;;5.50;99.90;;;;;;5093690;28;20035;-73
2021/05/25 02:44:03;;;;;;;5.78;1.35;;;5.40;99.90;;;;;;5093630;28;20036;-73
2021/05/25 02:46:28;;;;;;;3.13;1.40;;;5.30;99.90;;;;;;5093932;28;20337;-73
2021/05/25 02:48:54;;;;;;;2.38;1.17;;;5.20;99.90;;;;;;5093624;28;20077;-73
2021/05/25 02:51:20;;;;;;;4.70;1.27;;;5.10;99.90;;;;;;5092989;28;20174;-73
2021/05/25 02:53:46;;;;;;;4.07;1.08;;;5.20;99.90;;;;;;5093482;28;20051;-73
2021/05/25 02:56:12;;;;;;;5.40;1.52;;;5.30;99.90;;;;;;5093365;28;20024;-73
2021/05/25 02:58:38;;;;;;;3.20;1.33;;;5.30;99.90;;;;;;5093478;28;20024;-73
2021/05/25 03:01:04;;;;;;;13.48;1.40;;;5.30;99.90;;;;;;5111292;28;20383;-73
2021/05/25 03:03:29;;;;;;;6.85;1.67;;;5.30;99.90;;;;;;5113465;28;20028;-73
2021/05/25 03:05:55;;;;;;;5.63;1.48;;;5.40;99.90;;;;;;5113425;28;20023;-73
2021/05/25 03:08:21;;;;;;;2.25;0.98;;;5.40;99.90;;;;;;5113560;28;20020;-73
2021/05/25 03:10:48;;;;;;;3.05;1.38;;;5.20;99.90;;;;;;5113369;28;20036;-73
2021/05/25 03:13:15;;;;;;;1.77;1.00;;;5.00;99.90;;;;;;5105726;28;20063;-73
2021/05/25 03:15:47;;;;;;;5.18;1.17;;;5.00;99.90;;;;;;5093096;28;20364;-73
2021/05/25 03:18:15;;;;;;;5.78;1.60;;;5.10;99.90;;;;;;5092745;28;20036;-73
2021/05/25 03:20:45;;;;;;;7.43;1.80;;;5.20;99.90;;;;;;5093123;28;20399;-73
2021/05/25 03:23:11;;;;;;;8.73;2.28;;;5.20;99.90;;;;;;5092937;28;20063;-73
2021/05/25 03:25:37;;;;;;;7.03;1.63;;;5.30;99.90;;;;;;5092744;28;20028;-73
2021/05/25 03:28:04;;;;;;;6.07;1.60;;;5.30;99.90;;;;;;5092654;28;20043;-73
2021/05/25 03:30:31;;;;;;;6.00;1.08;;;5.30;99.90;;;;;;5092823;28;20024;-73
2021/05/25 03:32:58;;;;;;;3.22;0.80;;;5.10;99.90;;;;;;5091650;28;20084;-73
2021/05/25 03:35:25;;;;;;;2.33;0.95;;;5.00;99.90;;;;;;5092702;28;20387;-73
2021/05/25 03:37:51;;;;;;;4.03;0.73;;;4.90;99.90;;;;;;5092925;28;20032;-73
2021/05/25 03:40:18;;;;;;;4.85;1.00;;;4.90;99.90;;;;;;5092784;28;20113;-73
2021/05/25 03:42:50;;;;;;;6.57;2.10;;;4.90;99.90;;;;;;5091368;28;20510;-73
2021/05/25 03:45:18;;;;;;;6.15;1.42;;;5.00;99.90;;;;;;5092568;28;20114;-73
2021/05/25 03:47:44;;;;;;;5.82;1.63;;;5.20;99.90;;;;;;5092367;28;20032;-73
2021/05/25 03:50:11;;;;;;;8.30;1.45;;;5.10;99.90;;;;;;5092493;28;20090;-73
2021/05/25 03:52:43;;;;;;;4.63;1.20;;;5.00;99.90;;;;;;5091234;28;20031;-73
2021/05/25 03:55:24;;;;;;;3.00;1.30;;;5.00;99.90;;;;;;5092593;28;20032;-73
2021/05/25 04:00:34;;;;;;;2.75;1.25;;;4.80;99.90;;;;;;5092769;28;20493;-73
2021/05/25 04:02:59;;;;;;;3.45;0.90;;;4.70;99.90;;;;;;5113010;28;20047;-73
2021/05/25 04:05:25;;;;;;;4.38;1.30;;;4.70;99.90;;;;;;5109332;28;20028;-73
2021/05/25 04:07:51;;;;;;;7.55;1.70;;;4.70;99.90;;;;;;5093003;28;20032;-73
2021/05/25 04:10:17;;;;;;;6.32;1.30;;;4.80;99.90;;;;;;5099306;28;20032;-73
2021/05/25 04:12:42;;;;;;;3.50;1.20;;;4.80;99.90;;;;;;5096624;28;20038;-73
2021/05/25 04:15:09;;;;;;;4.75;0.93;;;4.70;99.90;;;;;;5113448;28;20020;-73
2021/05/25 04:17:34;;;;;;;4.78;1.40;;;4.70;99.90;;;;;;5101576;28;20043;-73
2021/05/25 04:20:00;;;;;;;3.47;1.65;;;4.60;99.90;;;;;;5092971;28;20035;-73
2021/05/25 04:22:26;;;;;;;2.72;0.90;;;4.50;99.90;;;;;;5093226;28;20024;-73
2021/05/25 04:24:51;;;;;;;1.92;0.90;;;4.40;99.90;;;;;;5092442;28;20035;-73
2021/05/25 04:27:17;;;;;;;8.52;1.50;;;4.30;99.90;;;;;;5093394;28;20077;-73
2021/05/25 04:29:43;;;;;;;3.10;1.10;;;4.30;99.90;;;;;;5098768;28;20035;-73
2021/05/25 04:32:09;;;;;;;4.60;1.38;;;4.30;99.90;;;;;;5092292;28;20040;-73
2021/05/25 04:34:37;;;;;;;3.60;1.00;;;4.30;99.90;;;;;;5092428;28;20138;-74
2021/05/25 04:37:03;;;;;;;9.00;1.55;;;4.40;99.90;;;;;;5096967;28;20153;-73
2021/05/25 04:39:29;;;;;;;8.48;3.40;;;4.30;99.90;;;;;;5112915;28;20061;-73
2021/05/25 04:41:54;;;;;;;6.63;3.33;;;4.40;99.90;;;;;;5112764;28;20435;-73
2021/05/25 04:44:20;;;;;;;8.65;3.88;;;4.50;99.90;;;;;;5114494;28;20039;-73
2021/05/25 04:46:46;;;;;;;9.27;5.97;;;4.60;99.90;;;;;;5105226;28;20074;-73
2021/05/25 04:49:12;;;;;;;6.10;3.60;;;4.60;99.90;;;;;;5096018;28;20113;-73
2021/05/25 04:51:37;;;;;;;5.55;3.28;;;4.60;99.90;;;;;;5113764;28;20031;-73
2021/05/25 04:54:03;;;;;;;6.50;3.85;;;4.70;99.90;;;;;;5116895;27;20465;-74
2021/05/25 04:56:29;;;;;;;5.35;3.35;;;4.80;99.90;;;;;;5113537;28;20049;-73
2021/05/25 04:58:55;;;;;;;5.43;2.38;;;4.80;99.90;;;;;;5107135;28;20067;-73
2021/05/25 05:01:21;;;;;;;9.20;2.08;;;4.90;99.90;;;;;;5115658;28;20085;-73
2021/05/25 05:03:47;;;;;;;6.25;1.90;;;5.00;99.90;;;;;;5115915;28;20027;-74
2021/05/25 05:06:13;;;;;;;22.58;2.58;;;5.20;99.90;;;;;;5115866;28;20032;-73
2021/05/25 05:08:43;;;;;;;7.70;1.95;;;5.40;99.90;;;;;;5115849;28;20038;-74
2021/05/25 05:11:09;;;;;;;7.40;2.58;;;5.70;99.90;;;;;;5115830;28;20482;-73
2021/05/25 05:13:35;;;;;;;3.72;1.48;;;6.00;99.90;;;;;;5115864;28;20467;-73
2021/05/25 05:16:01;;;;;;;8.77;2.42;;;6.20;99.90;;;;;;5115554;28;20062;-73
2021/05/25 05:18:26;;;;;;;4.57;2.63;;;6.50;99.90;;;;;;5114503;28;20449;-73
2021/05/25 05:20:53;;;;;;;3.97;1.73;;;6.60;99.90;;;;;;5116014;28;20061;-73
2021/05/25 05:23:18;;;;;;;4.40;1.48;;;6.50;99.90;;;;;;5104331;28;20080;-73
2021/05/25 05:25:44;;;;;;;4.82;1.75;;;6.40;99.90;;;;;;5095840;28;20032;-73
2021/05/25 05:28:10;;;;;;;5.07;2.67;;;6.30;99.90;;;;;;5112264;28;20134;-73
2021/05/25 05:30:36;;;;;;;5.30;1.33;;;6.30;99.90;;;;;;5110697;27;20099;-74
2021/05/25 05:33:02;;;;;;;7.10;1.40;;;6.20;99.90;;;;;;5110522;28;20036;-73
2021/05/25 05:35:28;;;;;;;3.35;1.45;;;6.30;99.90;;;;;;5113966;28;20038;-73
2021/05/25 05:37:53;;;;;;;6.00;1.15;;;6.20;99.90;;;;;;5109169;28;20035;-73
2021/05/25 05:40:19;;;;;;;7.70;2.78;;;6.30;99.90;;;;;;5112606;28;20425;-74
2021/05/25 05:42:45;;;;;;;3.25;1.05;;;6.30;99.90;;;;;;5114405;28;20047;-73
2021/05/25 05:45:11;;;;;;;3.40;1.48;;;6.20;99.90;;;;;;5115233;27;20032;-74
2021/05/25 05:47:37;;;;;;;6.75;1.58;;;6.20;99.90;;;;;;5111103;28;20092;-74
2021/05/25 05:50:10;;;;;;;4.50;1.60;;;6.40;99.90;;;;;;5105216;28;20111;-73
2021/05/25 05:52:39;;;;;;;2.72;1.77;;;6.60;99.90;;;;;;5106450;28;20024;-74
2021/05/25 05:55:06;;;;;;;5.95;2.15;;;6.80;99.90;;;;;;5103007;28;20036;-73
2021/05/25 05:57:33;;;;;;;5.10;1.80;;;7.10;99.90;;;;;;5102656;28;20044;-74
2021/05/25 05:59:59;;;;;;;6.03;2.33;;;7.50;99.90;;;;;;5103582;28;20031;-74
2021/05/25 06:02:25;;;;;;;4.85;1.50;;;7.70;99.90;;;;;;5109397;28;20134;-74
2021/05/25 06:04:51;;;;;;;6.20;1.63;;;7.80;99.90;;;;;;5099725;28;20426;-73
2021/05/25 06:07:17;;;;;;;6.40;1.83;;;7.90;99.90;;;;;;5100173;28;20020;-73
2021/05/25 06:09:43;;;;;;;5.68;1.42;;;8.10;99.90;;;;;;5104372;28;20080;-73
2021/05/25 06:12:10;;;;;;;9.85;1.80;;;8.10;99.90;;;;;;5099518;28;20626;-73
2021/05/25 06:14:36;;;;;;;7.32;2.10;;;8.20;99.90;;;;;;5104287;28;20026;-73
2021/05/25 06:17:02;;;;;;;6.00;1.20;;;8.20;99.90;;;;;;5104592;28;20126;-73
2021/05/25 06:19:29;;;;;;;5.95;1.48;;;8.20;99.90;;;;;;5098547;28;20111;-73
2021/05/25 06:21:55;;;;;;;7.13;2.35;;;8.30;99.90;;;;;;5103517;28;20048;-74
2021/05/25 06:24:21;;;;;;;5.78;1.85;;;8.50;99.90;;;;;;5107442;28;20530;-73
2021/05/25 06:26:47;;;;;;;3.95;1.30;;;8.50;99.90;;;;;;5103882;28;20030;-73
2021/05/25 06:29:13;;;;;;;7.40;1.65;;;8.60;99.90;;;;;;5102344;28;20087;-74
2021/05/25 06:31:39;;;;;;;5.95;1.80;;;8.60;99.90;;;;;;5099047;28;20484;-74
2021/05/25 06:34:05;;;;;;;8.73;1.92;;;8.80;99.90;;;;;;5106972;28;20036;-73
2021/05/25 06:36:31;;;;;;;7.32;1.45;;;8.70;99.90;;;;;;5099407;28;20491;-73
2021/05/25 06:38:59;;;;;;;7.00;1.60;;;8.80;99.90;;;;;;5098000;27;20032;-81
2021/05/25 06:41:26;;;;;;;6.28;1.75;;;9.00;99.90;;;;;;5103262;28;20484;-80
2021/05/25 06:43:53;;;;;;;10.55;2.20;;;9.10;99.90;;;;;;5107213;28;20031;-73
2021/05/25 06:46:19;;;;;;;5.28;1.42;;;9.50;99.90;;;;;;5101444;28;20465;-73
2021/05/25 06:48:45;;;;;;;5.22;2.03;;;9.80;99.90;;;;;;5110833;28;20023;-73
2021/05/25 06:51:10;;;;;;;4.97;1.75;;;10.10;99.90;;;;;;5103526;27;20449;-73
2021/05/25 06:53:37;;;;;;;8.48;2.45;;;10.40;99.90;;;;;;5095936;28;20024;-73
2021/05/25 06:56:03;;;;;;;6.13;1.92;;;10.30;99.90;;;;;;5093205;28;20028;-74
2021/05/25 06:58:29;;;;;;;7.90;1.42;;;10.20;99.90;;;;;;5101445;28;20072;-73
2021/05/25 07:00:55;;;;;;;4.18;1.58;;;10.10;99.90;;;;;;5096777;28;20062;-74
2021/05/25 07:03:21;;;;;;;3.83;1.83;;;10.20;99.90;;;;;;5093517;28;20037;-74
2021/05/25 07:05:46;;;;;;;4.93;1.50;;;10.00;99.90;;;;;;5098989;28;20032;-74
2021/05/25 07:08:13;;;;;;;5.65;1.95;;;10.00;99.90;;;;;;5100591;28;20024;-79
2021/05/25 07:10:39;;;;;;;9.57;2.40;;;10.50;99.90;;;;;;5095270;28;20506;-74
2021/05/25 07:13:07;;;;;;;4.95;1.70;;;11.00;99.90;;;;;;5093247;28;20099;-74
2021/05/25 07:15:33;;;;;;;5.90;1.80;;;11.40;99.90;;;;;;5110508;28;20494;-74
2021/05/25 07:17:59;;;;;;;4.88;1.63;;;11.50;98.80;;;;;;5099024;28;20095;-74
2021/05/25 07:20:26;;;;;;;2.50;1.02;;;11.40;99.40;;;;;;5093149;28;20103;-74
2021/05/25 07:22:54;;;;;;;6.93;2.00;;;11.10;99.80;;;;;;5112014;28;20169;-74
2021/05/25 07:25:21;;;;;;;4.72;2.17;;;11.10;99.90;;;;;;5098568;28;20110;-74
2021/05/25 07:27:47;;;;;;;4.68;1.70;;;10.80;99.90;;;;;;5091641;28;20024;-74
2021/05/25 07:30:14;;;;;;;5.50;1.33;;;10.90;99.90;;;;;;5092946;28;20384;-74
2021/05/25 07:32:40;;;;;;;4.93;1.02;;;10.90;99.70;;;;;;5092411;28;20063;-74
2021/05/25 07:35:06;;;;;;;6.00;1.38;;;10.90;99.90;;;;;;5093052;28;20535;-74
2021/05/25 07:37:34;;;;;;;4.68;1.23;;;11.00;99.90;;;;;;5092470;28;20135;-74
2021/05/25 07:40:00;;;;;;;3.00;1.17;;;11.20;99.90;;;;;;5092428;28;20094;-74
2021/05/25 07:42:26;;;;;;;3.20;1.70;;;11.30;98.60;;;;;;5092666;28;20464;-74
2021/05/25 07:44:52;;;;;;;5.82;1.65;;;11.40;97.70;;;;;;5092641;28;20024;-74
2021/05/25 07:47:18;;;;;;;6.55;1.50;;;11.50;97.30;;;;;;5092751;28;20461;-74
2021/05/25 07:49:44;;;;;;;11.38;1.17;;;11.60;95.10;;;;;;5092656;28;20048;-74
2021/05/25 07:52:10;;;;;;;6.15;1.42;;;11.70;97.50;;;;;;5092768;28;20028;-74
2021/05/25 07:54:36;;;;;;;6.75;1.60;;;11.80;96.90;;;;;;5092108;28;20506;-74
2021/05/25 07:57:02;;;;;;;4.97;1.10;;;12.00;96.70;;;;;;5092425;28;20031;-74
2021/05/25 07:59:28;;;;;;;6.38;1.60;;;12.00;94.20;;;;;;5092403;28;20038;-74
2021/05/25 08:01:55;;;;;;;6.88;1.42;;;12.30;95.20;;;;;;5092496;28;20426;-74
2021/05/25 08:04:21;;;;;;;8.13;2.15;;;12.60;93.40;;;;;;5092450;28;20055;-74
2021/05/25 08:06:47;;;;;;;4.75;1.25;;;12.90;94.90;;;;;;5092297;28;20048;-74
2021/05/25 08:09:12;;;;;;;4.72;1.30;;;13.10;91.90;;;;;;5092186;28;20476;-74
2021/05/25 08:11:38;;;;;;;5.88;1.10;;;13.30;91.70;;;;;;5110954;28;20468;-74
2021/05/25 08:14:06;;;;;;;5.30;1.40;;;13.40;91.30;;;;;;5112810;28;20494;-74
2021/05/25 08:16:34;;;;;;;6.60;1.38;;;13.40;87.40;;;;;;5112698;28;20024;-74
2021/05/25 08:21:32;;;;;;;7.78;1.27;;;12.80;87.70;;;;;;5116715;28;20395;-74
2021/05/25 08:23:58;;;;;;;7.82;3.03;;;13.00;86.10;;;;;;5116531;28;20026;-74
2021/05/25 08:26:26;;;;;;;10.95;1.80;;;13.40;90.30;;;;;;5116947;28;20027;-74
2021/05/25 08:28:53;;;;;;;8.13;1.13;;;13.60;90.00;;;;;;5116374;28;20080;-74
2021/05/25 08:31:19;;;;;;;5.07;1.33;;;14.10;88.10;;;;;;5116679;28;20024;-74
2021/05/25 08:33:45;;;;;;;8.18;2.53;;;14.30;85.70;;;;;;5116494;28;20046;-74
2021/05/25 08:36:11;;;;;;;5.55;1.25;;;14.10;83.70;;;;;;5116618;28;20107;-74
2021/05/25 08:38:37;;;;;;;5.32;1.48;;;14.20;82.20;;;;;;5116309;28;20025;-74
2021/05/25 08:41:04;;;;;;;7.38;1.42;;;14.30;83.70;;;;;;5116363;28;20547;-74
2021/05/25 08:43:32;;;;;;;1.88;0.63;;;14.50;82.70;;;;;;5116465;28;20032;-75
2021/05/25 08:45:57;;;;;;;4.40;1.15;;;15.10;81.10;;;;;;5116211;28;20027;-74
2021/05/25 08:48:23;;;;;;;7.55;1.48;;;15.60;81.50;;;;;;5116546;28;20031;-74
2021/05/25 08:50:52;;;;;;;5.85;1.23;;;15.90;81.40;;;;;;5115995;28;20563;-75
2021/05/25 08:53:18;;;;;;;6.20;1.25;;;15.80;77.80;;;;;;5115851;28;20024;-75
2021/05/25 08:55:48;;;;;;;6.50;1.10;;;15.50;77.20;;;;;;5112906;28;20106;-76
2021/05/25 08:58:14;;;;;;;7.82;1.77;;;14.60;75.20;;;;;;5100424;28;20222;-75
2021/05/25 09:00:40;;;;;;;4.70;0.90;;;14.80;82.60;;;;;;5096328;28;20131;-75
2021/05/25 09:03:05;;;;;;;2.15;1.00;;;15.00;76.20;;;;;;5095614;28;20446;-75
2021/05/25 09:05:32;;;;;;;5.97;1.50;;;14.70;81.00;;;;;;5094262;28;20396;-75
2021/05/25 09:07:59;;;;;;;3.75;0.90;;;15.00;77.10;;;;;;5095170;28;20035;-75
2021/05/25 09:10:37;;;;;;;5.65;1.75;;;15.50;74.10;;;;;;5104056;28;20077;-75
2021/05/25 09:13:10;;;;;;;8.55;1.45;;;15.10;74.60;;;;;;5115896;28;20081;-76
2021/05/25 09:15:50;;;;;;;3.70;1.17;;;14.30;75.20;;;;;;5115774;28;20020;-75
2021/05/25 09:18:25;;;;;;;5.53;1.88;;;14.40;75.20;;;;;;5115897;28;20593;-75
2021/05/25 09:20:53;;;;;;;2.60;0.90;;;15.20;79.00;;;;;;5114015;28;20031;-75
2021/05/25 09:23:22;;;;;;;4.13;1.10;;;14.80;73.10;;;;;;5115617;28;20023;-75
2021/05/25 09:25:59;;;;;;;4.13;1.10;;;14.80;73.40;;;;;;5115540;28;20028;-75
2021/05/25 09:28:25;;;;;;;4.40;1.05;;;14.70;73.20;;;;;;5115619;28;20026;-75
2021/05/25 09:30:51;;;;;;;3.72;1.35;;;14.80;72.60;;;;;;5114282;28;20032;-75
2021/05/25 09:33:18;;;;;;;4.05;0.93;;;15.40;73.30;;;;;;5115316;28;20071;-75
2021/05/25 09:35:47;;;;;;;5.60;1.02;;;15.50;74.30;;;;;;5114917;28;20391;-75
2021/05/25 09:38:16;;;;;;;7.40;1.20;;;15.60;71.80;;;;;;5115444;28;20027;-75
2021/05/25 09:40:44;;;;;;;1.88;0.70;;;16.40;74.20;;;;;;5115161;28;20076;-75
2021/05/25 09:43:22;;;;;;;4.35;0.82;;;16.60;68.90;;;;;;5115521;28;20023;-76
2021/05/25 09:45:54;;;;;;;3.58;1.05;;;16.00;70.70;;;;;;5115297;28;20032;-75
2021/05/25 09:48:25;;;;;;;3.95;1.50;;;16.00;68.90;;;;;;5115353;28;20030;-75
2021/05/25 09:50:54;;;;;;;5.35;1.42;;;17.60;72.00;;;;;;5109602;28;20027;-77
2021/05/25 09:53:23;;;;;;;3.85;1.27;;;18.70;69.00;;;;;;5110230;27;20019;-76
2021/05/25 09:55:56;;;;;;;9.00;2.05;;;18.70;67.80;;;;;;5109279;28;20024;-76
2021/05/25 09:58:33;;;;;;;2.50;0.98;;;18.30;68.80;;;;;;5096364;28;20123;-76
2021/05/25 10:01:00;;;;;;;4.50;1.60;;;18.00;70.40;;;;;;5111312;28;20036;-76
2021/05/25 10:03:27;;;;;;;3.90;1.52;;;18.70;69.90;;;;;;5097968;28;20028;-76
2021/05/25 10:06:01;;;;;;;5.82;1.73;;;19.40;70.30;;;;;;5108931;28;20403;-77
2021/05/25 10:08:29;;;;;;;4.85;1.15;;;20.30;69.30;;;;;;5094503;28;20020;-77
2021/05/25 10:10:59;;;;;;;5.95;1.55;;;23.60;62.00;;;;;;5098528;28;20081;-77
2021/05/25 10:13:26;;;;;;;;;;;22.40;56.80;;;;;;5097037;28;20020;-80
2021/05/25 10:15:53;;;;;;;5.00;1.33;;;19.00;62.70;;;;;;5098749;28;19949;-80
2021/05/25 10:21:03;;;;;;;5.22;1.15;;;18.00;67.00;;;;;;5102005;28;20491;-80
2021/05/25 10:23:32;;;;;;;3.60;1.10;;;17.80;68.40;;;;;;5113561;27;20156;-80
2021/05/25 10:26:00;;;;;;;2.33;1.42;;;18.10;66.80;;;;;;5112168;28;20018;-80
2021/05/25 10:28:26;;;;;;;6.55;1.58;;;21.40;61.00;;;;;;5111966;28;20433;-80
2021/05/25 10:30:52;;;;;;;3.75;1.48;;;25.60;53.60;;;;;;5107156;28;20028;-80
2021/05/25 10:33:21;;;;;;;3.75;1.65;;;28.20;50.30;;;;;;5100526;28;20459;-80
2021/05/25 10:35:49;;;;;;;5.75;1.60;;;27.50;48.10;;;;;;5113748;28;20031;-80
2021/05/25 10:38:16;;;;;;;3.42;1.48;;;26.80;45.10;;;;;;5113140;28;20033;-80
2021/05/25 10:40:48;;;;;;;6.00;1.65;;;24.80;46.80;;;;;;5112128;28;20016;-81
2021/05/25 10:43:32;;;;;;;4.22;1.40;;;24.00;50.10;;;;;;5110121;28;20080;-81
2021/05/25 10:46:10;;;;;;;2.67;1.60;;;21.00;57.80;;;;;;5093521;28;20030;-80
2021/05/25 10:49:08;;;;;;;5.07;1.75;;;22.70;53.80;;;;;;5106616;28;20172;-80
2021/05/25 10:51:51;;;;;;;4.70;1.75;;;27.20;50.10;;;;;;5100315;28;20035;-80
2021/05/25 10:54:25;;;;;;;3.22;1.58;;;29.50;44.30;;;;;;5113376;28;20019;-80
2021/05/25 10:56:53;;;;;;;3.50;1.20;;;27.90;46.80;;;;;;5105620;28;20467;-80
2021/05/25 10:59:20;;;;;;;1.90;1.17;;;27.60;44.20;;;;;;5096342;28;20024;-80
2021/05/25 11:01:59;;;;;;;5.03;1.45;;;24.50;49.10;;;;;;5096280;28;20035;-80
2021/05/25 11:04:36;;;;;;;4.57;1.27;;;21.10;51.30;;;;;;5093642;28;20361;-80
2021/05/25 11:07:37;;;;;;;3.88;1.50;;;20.70;57.50;;;;;;5092985;28;20016;-80
2021/05/25 11:10:28;;;;;;;4.75;1.40;;;20.70;55.30;;;;;;5104533;28;20096;-80
2021/05/25 11:13:19;;;;;;;4.63;1.20;;;22.00;55.90;;;;;;5100675;28;20102;-80
2021/05/25 11:16:07;;;;;;;13.15;1.90;;;20.90;53.90;;;;;;5092136;28;20031;-79
2021/05/25 11:21:19;;;;;;;5.82;1.38;;;20.60;53.90;;;;;;5092303;28;20496;-79
2021/05/25 11:23:50;;;;;;;3.30;1.65;;;20.70;52.40;;;;;;5090987;28;20030;-79
2021/05/25 11:26:55;;;;;;;15.57;1.85;;;21.50;57.00;;;;;;5091980;28;20035;-79
2021/05/25 11:29:25;;;;;;;10.25;1.75;;;20.30;53.90;;;;;;5091900;28;20023;-79
2021/05/25 11:31:52;;;;;;;6.60;1.20;;;21.30;57.70;;;;;;5092351;28;20047;-79
2021/05/25 11:34:22;;;;;;;2.80;1.20;;;22.00;56.60;;;;;;5092878;28;20028;-79
2021/05/25 11:37:00;;;;;;;6.30;2.55;;;20.80;55.10;;;;;;5093007;28;20020;-79
2021/05/25 11:39:32;;;;;;;14.45;1.98;;;20.60;57.10;;;;;;5092574;28;20054;-79
2021/05/25 11:41:58;;;;;;;8.15;1.50;;;20.90;57.20;;;;;;5092670;28;20548;-79
2021/05/25 11:44:40;;;;;;;3.72;1.30;;;21.50;55.50;;;;;;5092493;28;20030;-79
2021/05/25 11:47:06;;;;;;;6.70;1.77;;;25.00;50.50;;;;;;5091266;28;20035;-79
2021/05/25 11:49:34;;;;;;;2.80;1.10;;;28.40;44.40;;;;;;5092531;28;20173;-79
2021/05/25 11:52:14;;;;;;;6.13;1.20;;;24.80;47.70;;;;;;5092710;28;20095;-79
2021/05/25 11:54:41;;;;;;;3.42;0.90;;;20.80;52.90;;;;;;5091678;28;20150;-79
2021/05/25 11:57:07;;;;;;;1.98;0.70;;;19.60;58.20;;;;;;5092574;28;20434;-79
2021/05/25 11:59:32;;;;;;;3.78;1.17;;;19.00;60.60;;;;;;5092339;28;20032;-79
2021/05/25 12:01:58;;;;;;;4.57;1.23;;;18.80;60.20;;;;;;5092117;28;20511;-79
2021/05/25 12:04:28;;;;;;;4.53;1.10;;;18.40;60.10;;;;;;5092269;28;20038;-79
2021/05/25 12:06:59;;;;;;;3.88;0.88;;;18.00;60.50;;;;;;5092455;28;20111;-79
2021/05/25 12:09:27;;;;;;;3.45;1.00;;;17.70;59.90;;;;;;5091408;28;20433;-79
2021/05/25 12:12:08;;;;;;;2.30;0.90;;;17.40;61.40;;;;;;5091112;28;20376;-79
2021/05/25 12:14:33;;;;;;;5.53;0.98;;;17.30;61.40;;;;;;5092506;28;20478;-79
2021/05/25 12:17:03;;;;;;;4.90;1.45;;;17.20;64.40;;;;;;5092543;28;20047;-79
2021/05/25 12:19:29;;;;;;;3.75;1.10;;;17.40;64.10;;;;;;5092239;28;20103;-79
2021/05/25 12:22:02;;;;;;;2.88;1.20;;;17.30;62.40;;;;;;5091176;28;20020;-79
2021/05/25 12:24:32;;;;;;;6.50;1.42;;;17.30;63.10;;;;;;5092231;28;20488;-79
2021/05/25 12:26:58;;;;;;;5.40;1.35;;;17.40;65.20;;;;;;5092338;28;20024;-79
2021/05/25 12:29:25;;;;;;;2.13;1.00;;;17.40;63.10;;;;;;5091612;28;20028;-79
2021/05/25 12:31:55;;;;;;;4.80;1.20;;;17.50;64.70;;;;;;5092089;28;20048;-80
2021/05/25 12:34:21;;;;;;;14.50;1.90;;;17.80;63.90;;;;;;5092106;28;20473;-79
2021/05/25 12:36:51;;;;;;;2.88;1.20;;;18.30;63.80;;;;;;5092289;28;20110;-78
2021/05/25 12:39:29;;;;;;;;;;;18.00;60.90;;;;;;5092623;28;20361;-79
2021/05/25 12:41:55;;;;;;;5.28;1.40;;;18.40;60.30;;;;;;5092212;28;19904;-79
2021/05/25 12:44:32;;;;;;;5.13;0.70;;;18.00;62.10;;;;;;5091760;28;20494;-79
2021/05/25 12:47:04;;;;;;;4.28;0.93;;;17.40;59.60;;;;;;5095147;28;20094;-79
2021/05/25 12:49:36;;;;;;;5.28;0.90;;;17.30;64.70;;;;;;5106582;28;20353;-78
2021/05/25 12:52:26;;;;;;;3.67;1.20;;;17.40;62.80;;;;;;5092055;28;20445;-78
2021/05/25 12:55:10;;;;;;;5.20;1.00;;;16.90;62.50;;;;;;5096941;28;20097;-78
2021/05/25 12:57:46;;;;;;;2.75;0.95;;;16.70;62.00;;;;;;5103463;28;20763;-78
2021/05/25 13:00:15;;;;;;;5.32;1.00;;;16.50;62.00;;;;;;5100860;28;20170;-78
2021/05/25 13:02:43;;;;;;;2.20;0.63;;;16.60;62.60;;;;;;5089432;28;20517;-78
2021/05/25 13:05:13;;;;;;;3.88;1.02;;;17.00;64.30;;;;;;5099511;28;20024;-78
2021/05/25 13:07:53;;;;;;;4.53;1.25;;;17.10;62.60;;;;;;5104603;28;20107;-78